KATL/ATL METAR and TAF weather

Enter ICAO airport designator
Station Type Date Time Source
KATL METAR 2020/06/05 08:52 UTC NOAA

KATL 050852Z 25005KT 10SM FEW080 22/18 A2996 RMK AO2 SLP134 T02220183 55002 $


Station Type Date Time Source
KATL Decoded METAR 2020/06/05 08:52 UTC NOAA

HARTSFIELD-JACKSON ATLANTA, GA, United States (KATL) 33-39N 84-26W
Jun 05, 2020 - 04:52 AM EDT / 2020.06.05 0852 UTC
Wind: from the WSW (250 degrees) at 6 MPH (5 KT):0
Visibility: 10 mile(s):0
Sky conditions: mostly clear
Temperature: 72.0 F (22.2 C)
Dew Point: 64.9 F (18.3 C)
Relative Humidity: 78%
Pressure (altimeter): 29.96 in. Hg (1014 hPa)
Pressure tendency: 0.01 inches (0.2 hPa) lower than three hours ago
ob: KATL 050852Z 25005KT 10SM FEW080 22/18 A2996 RMK AO2 SLP134 T02220183 55002
cycle: 9

Station Type Date Time Source
KATL TAF 2020/06/05 06:33 UTC NOAA

TAF KATL 050531Z 0506/0612 20006KT P6SM FEW050 BKN250
FM050900 22004KT P6SM SCT010 BKN080
FM051400 25006KT P6SM VCSH SCT035 BKN250
FM051800 25009KT P6SM VCSH BKN050 BKN250 PROB30 0519/0523 4SM TSRA BKN030CB
FM060200 25005KT P6SM FEW040 SCT250
FM061000 VRB03KT P6SM SCT020

Example: see airport list